sensor_id;sensor_type;location;lat;lon;timestamp;P1;durP1;ratioP1;P2;durP2;ratioP2
64615;SDS011;51027;42.162;24.754;2023-11-18T00:01:14;7.10;;;2.40;;
64615;SDS011;51027;42.162;24.754;2023-11-18T00:03:40;7.80;;;2.42;;
64615;SDS011;51027;42.162;24.754;2023-11-18T00:06:05;4.47;;;2.42;;
64615;SDS011;51027;42.162;24.754;2023-11-18T00:08:33;6.68;;;2.50;;
64615;SDS011;51027;42.162;24.754;2023-11-18T00:10:58;8.15;;;2.67;;
64615;SDS011;51027;42.162;24.754;2023-11-18T00:13:24;4.55;;;2.45;;
64615;SDS011;51027;42.162;24.754;2023-11-18T00:15:51;4.75;;;2.50;;
64615;SDS011;51027;42.162;24.754;2023-11-18T00:18:17;8.30;;;2.72;;
64615;SDS011;51027;42.162;24.754;2023-11-18T00:20:42;6.90;;;2.58;;
64615;SDS011;51027;42.162;24.754;2023-11-18T00:23:08;7.35;;;2.30;;
64615;SDS011;51027;42.162;24.754;2023-11-18T00:25:33;5.53;;;2.53;;
64615;SDS011;51027;42.162;24.754;2023-11-18T00:28:01;6.28;;;2.60;;
64615;SDS011;51027;42.162;24.754;2023-11-18T00:30:26;6.88;;;2.30;;
64615;SDS011;51027;42.162;24.754;2023-11-18T00:32:53;6.88;;;2.45;;
64615;SDS011;51027;42.162;24.754;2023-11-18T00:35:19;5.05;;;2.35;;
64615;SDS011;51027;42.162;24.754;2023-11-18T00:37:44;8.05;;;2.63;;
64615;SDS011;51027;42.162;24.754;2023-11-18T00:40:10;6.55;;;2.67;;
64615;SDS011;51027;42.162;24.754;2023-11-18T00:42:36;5.60;;;2.13;;
64615;SDS011;51027;42.162;24.754;2023-11-18T00:45:02;5.30;;;2.40;;
64615;SDS011;51027;42.162;24.754;2023-11-18T00:47:29;5.30;;;2.20;;
64615;SDS011;51027;42.162;24.754;2023-11-18T00:49:55;7.00;;;2.20;;
64615;SDS011;51027;42.162;24.754;2023-11-18T00:52:20;7.22;;;2.00;;
64615;SDS011;51027;42.162;24.754;2023-11-18T00:54:46;5.10;;;2.08;;
64615;SDS011;51027;42.162;24.754;2023-11-18T00:57:11;6.35;;;2.40;;
64615;SDS011;51027;42.162;24.754;2023-11-18T00:59:38;6.13;;;2.20;;
64615;SDS011;51027;42.162;24.754;2023-11-18T01:02:06;8.50;;;2.47;;
64615;SDS011;51027;42.162;24.754;2023-11-18T01:04:33;8.07;;;3.00;;
64615;SDS011;51027;42.162;24.754;2023-11-18T01:06:59;7.65;;;2.50;;
64615;SDS011;51027;42.162;24.754;2023-11-18T01:09:26;6.93;;;2.58;;
64615;SDS011;51027;42.162;24.754;2023-11-18T01:11:52;7.05;;;2.42;;
64615;SDS011;51027;42.162;24.754;2023-11-18T01:14:17;6.95;;;2.72;;
64615;SDS011;51027;42.162;24.754;2023-11-18T01:16:44;7.55;;;3.10;;
64615;SDS011;51027;42.162;24.754;2023-11-18T01:19:10;8.57;;;2.88;;
64615;SDS011;51027;42.162;24.754;2023-11-18T01:21:36;8.38;;;2.72;;
64615;SDS011;51027;42.162;24.754;2023-11-18T01:24:01;7.60;;;2.83;;
64615;SDS011;51027;42.162;24.754;2023-11-18T01:26:27;11.18;;;3.13;;
64615;SDS011;51027;42.162;24.754;2023-11-18T01:28:52;7.95;;;3.17;;
64615;SDS011;51027;42.162;24.754;2023-11-18T01:31:18;6.63;;;2.78;;
64615;SDS011;51027;42.162;24.754;2023-11-18T01:33:44;6.20;;;2.72;;
64615;SDS011;51027;42.162;24.754;2023-11-18T01:36:11;4.65;;;2.75;;
64615;SDS011;51027;42.162;24.754;2023-11-18T01:38:37;4.95;;;2.60;;
64615;SDS011;51027;42.162;24.754;2023-11-18T01:41:03;5.53;;;2.20;;
64615;SDS011;51027;42.162;24.754;2023-11-18T01:43:32;5.63;;;2.60;;
64615;SDS011;51027;42.162;24.754;2023-11-18T01:46:02;3.47;;;2.20;;
64615;SDS011;51027;42.162;24.754;2023-11-18T01:48:30;3.75;;;2.30;;
64615;SDS011;51027;42.162;24.754;2023-11-18T01:50:58;3.58;;;2.17;;
64615;SDS011;51027;42.162;24.754;2023-11-18T01:53:24;5.28;;;2.10;;
64615;SDS011;51027;42.162;24.754;2023-11-18T01:55:51;4.78;;;2.40;;
64615;SDS011;51027;42.162;24.754;2023-11-18T01:58:17;4.68;;;2.17;;
64615;SDS011;51027;42.162;24.754;2023-11-18T02:00:45;4.40;;;1.75;;
64615;SDS011;51027;42.162;24.754;2023-11-18T02:03:14;4.65;;;2.05;;
64615;SDS011;51027;42.162;24.754;2023-11-18T02:05:39;3.05;;;1.65;;
64615;SDS011;51027;42.162;24.754;2023-11-18T02:08:07;2.38;;;1.58;;
64615;SDS011;51027;42.162;24.754;2023-11-18T02:10:37;1.70;;;1.40;;
64615;SDS011;51027;42.162;24.754;2023-11-18T02:13:22;3.42;;;1.52;;
64615;SDS011;51027;42.162;24.754;2023-11-18T02:15:51;1.73;;;1.40;;
64615;SDS011;51027;42.162;24.754;2023-11-18T02:18:19;2.63;;;1.90;;
64615;SDS011;51027;42.162;24.754;2023-11-18T02:20:45;2.20;;;1.20;;
64615;SDS011;51027;42.162;24.754;2023-11-18T02:23:12;1.83;;;1.27;;
64615;SDS011;51027;42.162;24.754;2023-11-18T02:25:42;1.60;;;1.50;;
64615;SDS011;51027;42.162;24.754;2023-11-18T02:28:10;1.65;;;1.10;;
64615;SDS011;51027;42.162;24.754;2023-11-18T02:30:35;2.33;;;1.25;;
64615;SDS011;51027;42.162;24.754;2023-11-18T02:35:53;2.08;;;1.42;;
64615;SDS011;51027;42.162;24.754;2023-11-18T02:38:34;2.17;;;1.30;;
64615;SDS011;51027;42.162;24.754;2023-11-18T02:41:06;2.97;;;1.50;;
64615;SDS011;51027;42.162;24.754;2023-11-18T02:43:36;2.83;;;1.67;;
64615;SDS011;51027;42.162;24.754;2023-11-18T02:46:04;1.35;;;0.93;;
64615;SDS011;51027;42.162;24.754;2023-11-18T02:48:32;4.47;;;1.20;;
64615;SDS011;51027;42.162;24.754;2023-11-18T02:51:01;1.92;;;1.25;;
64615;SDS011;51027;42.162;24.754;2023-11-18T02:53:27;1.98;;;1.25;;
64615;SDS011;51027;42.162;24.754;2023-11-18T02:55:52;2.33;;;1.45;;
64615;SDS011;51027;42.162;24.754;2023-11-18T02:58:18;3.20;;;1.55;;
64615;SDS011;51027;42.162;24.754;2023-11-18T03:00:44;3.50;;;1.70;;
64615;SDS011;51027;42.162;24.754;2023-11-18T03:03:10;3.08;;;1.63;;
64615;SDS011;51027;42.162;24.754;2023-11-18T03:05:36;2.80;;;1.30;;
64615;SDS011;51027;42.162;24.754;2023-11-18T03:08:02;1.00;;;0.90;;
64615;SDS011;51027;42.162;24.754;2023-11-18T03:10:31;3.33;;;1.50;;
64615;SDS011;51027;42.162;24.754;2023-11-18T03:13:00;1.70;;;1.20;;
64615;SDS011;51027;42.162;24.754;2023-11-18T03:15:26;2.83;;;1.48;;
64615;SDS011;51027;42.162;24.754;2023-11-18T03:17:53;1.00;;;1.00;;
64615;SDS011;51027;42.162;24.754;2023-11-18T03:20:20;1.23;;;1.10;;
64615;SDS011;51027;42.162;24.754;2023-11-18T03:22:48;1.15;;;1.10;;
64615;SDS011;51027;42.162;24.754;2023-11-18T03:25:15;1.25;;;1.15;;
64615;SDS011;51027;42.162;24.754;2023-11-18T03:27:41;3.50;;;1.40;;
64615;SDS011;51027;42.162;24.754;2023-11-18T03:30:07;2.15;;;1.05;;
64615;SDS011;51027;42.162;24.754;2023-11-18T03:32:34;1.13;;;1.00;;
64615;SDS011;51027;42.162;24.754;2023-11-18T03:35:03;3.53;;;1.23;;
64615;SDS011;51027;42.162;24.754;2023-11-18T03:37:33;1.10;;;0.75;;
64615;SDS011;51027;42.162;24.754;2023-11-18T03:39:59;0.90;;;0.88;;
64615;SDS011;51027;42.162;24.754;2023-11-18T03:42:25;0.65;;;0.65;;
64615;SDS011;51027;42.162;24.754;2023-11-18T03:44:50;1.45;;;1.30;;
64615;SDS011;51027;42.162;24.754;2023-11-18T03:47:16;1.30;;;1.17;;
64615;SDS011;51027;42.162;24.754;2023-11-18T03:49:41;1.67;;;0.98;;
64615;SDS011;51027;42.162;24.754;2023-11-18T03:52:07;3.70;;;1.20;;
64615;SDS011;51027;42.162;24.754;2023-11-18T03:54:32;1.92;;;1.23;;
64615;SDS011;51027;42.162;24.754;2023-11-18T03:56:58;1.73;;;0.95;;
64615;SDS011;51027;42.162;24.754;2023-11-18T03:59:24;2.10;;;1.15;;
64615;SDS011;51027;42.162;24.754;2023-11-18T04:01:50;5.15;;;1.83;;
64615;SDS011;51027;42.162;24.754;2023-11-18T04:04:16;1.38;;;1.10;;
64615;SDS011;51027;42.162;24.754;2023-11-18T04:06:42;3.67;;;1.27;;
64615;SDS011;51027;42.162;24.754;2023-11-18T04:09:08;2.03;;;0.98;;
64615;SDS011;51027;42.162;24.754;2023-11-18T04:11:35;1.63;;;1.10;;
64615;SDS011;51027;42.162;24.754;2023-11-18T04:14:00;1.73;;;1.23;;
64615;SDS011;51027;42.162;24.754;2023-11-18T04:16:28;2.08;;;1.38;;
64615;SDS011;51027;42.162;24.754;2023-11-18T04:18:54;4.35;;;1.65;;
64615;SDS011;51027;42.162;24.754;2023-11-18T04:21:20;1.35;;;1.25;;
64615;SDS011;51027;42.162;24.754;2023-11-18T04:23:46;1.85;;;1.48;;
64615;SDS011;51027;42.162;24.754;2023-11-18T04:26:12;1.27;;;1.20;;
64615;SDS011;51027;42.162;24.754;2023-11-18T04:28:37;1.38;;;1.20;;
64615;SDS011;51027;42.162;24.754;2023-11-18T04:31:03;1.63;;;1.52;;
64615;SDS011;51027;42.162;24.754;2023-11-18T04:33:30;2.75;;;1.40;;
64615;SDS011;51027;42.162;24.754;2023-11-18T04:35:56;4.35;;;2.17;;
64615;SDS011;51027;42.162;24.754;2023-11-18T04:38:25;4.30;;;1.92;;
64615;SDS011;51027;42.162;24.754;2023-11-18T04:40:54;5.45;;;2.03;;
64615;SDS011;51027;42.162;24.754;2023-11-18T04:43:20;2.38;;;1.52;;
64615;SDS011;51027;42.162;24.754;2023-11-18T04:45:47;2.75;;;1.70;;
64615;SDS011;51027;42.162;24.754;2023-11-18T04:48:13;2.65;;;1.65;;
64615;SDS011;51027;42.162;24.754;2023-11-18T04:50:41;3.92;;;1.92;;
64615;SDS011;51027;42.162;24.754;2023-11-18T04:53:07;1.70;;;1.55;;
64615;SDS011;51027;42.162;24.754;2023-11-18T04:55:35;1.30;;;1.20;;
64615;SDS011;51027;42.162;24.754;2023-11-18T04:58:01;2.78;;;1.92;;
64615;SDS011;51027;42.162;24.754;2023-11-18T05:00:27;4.75;;;1.90;;
64615;SDS011;51027;42.162;24.754;2023-11-18T05:02:53;4.72;;;2.28;;
64615;SDS011;51027;42.162;24.754;2023-11-18T05:05:19;5.07;;;2.38;;
64615;SDS011;51027;42.162;24.754;2023-11-18T05:07:45;3.95;;;2.10;;
64615;SDS011;51027;42.162;24.754;2023-11-18T05:10:10;6.22;;;2.65;;
64615;SDS011;51027;42.162;24.754;2023-11-18T05:12:37;4.43;;;2.15;;
64615;SDS011;51027;42.162;24.754;2023-11-18T05:15:04;3.17;;;1.88;;
64615;SDS011;51027;42.162;24.754;2023-11-18T05:17:31;6.10;;;2.28;;
64615;SDS011;51027;42.162;24.754;2023-11-18T05:19:56;4.32;;;2.33;;
64615;SDS011;51027;42.162;24.754;2023-11-18T05:22:22;6.30;;;2.75;;
64615;SDS011;51027;42.162;24.754;2023-11-18T05:24:48;5.78;;;2.63;;
64615;SDS011;51027;42.162;24.754;2023-11-18T05:27:14;10.75;;;3.50;;
64615;SDS011;51027;42.162;24.754;2023-11-18T05:29:39;5.28;;;2.35;;
64615;SDS011;51027;42.162;24.754;2023-11-18T05:32:10;8.57;;;2.75;;
64615;SDS011;51027;42.162;24.754;2023-11-18T05:34:35;6.00;;;2.55;;
64615;SDS011;51027;42.162;24.754;2023-11-18T05:37:01;6.57;;;2.63;;
64615;SDS011;51027;42.162;24.754;2023-11-18T05:39:26;4.60;;;2.38;;
64615;SDS011;51027;42.162;24.754;2023-11-18T05:41:56;6.63;;;3.22;;
64615;SDS011;51027;42.162;24.754;2023-11-18T05:44:22;5.00;;;2.67;;
64615;SDS011;51027;42.162;24.754;2023-11-18T05:46:56;10.00;;;3.00;;
64615;SDS011;51027;42.162;24.754;2023-11-18T05:49:22;5.90;;;2.83;;
64615;SDS011;51027;42.162;24.754;2023-11-18T05:51:49;4.47;;;2.58;;
64615;SDS011;51027;42.162;24.754;2023-11-18T05:54:15;7.00;;;2.72;;
64615;SDS011;51027;42.162;24.754;2023-11-18T05:56:40;6.07;;;3.03;;
64615;SDS011;51027;42.162;24.754;2023-11-18T05:59:06;5.93;;;2.75;;
64615;SDS011;51027;42.162;24.754;2023-11-18T06:01:33;8.85;;;2.97;;
64615;SDS011;51027;42.162;24.754;2023-11-18T06:03:59;8.40;;;3.20;;
64615;SDS011;51027;42.162;24.754;2023-11-18T06:06:25;4.10;;;2.33;;
64615;SDS011;51027;42.162;24.754;2023-11-18T06:08:51;9.38;;;3.20;;
64615;SDS011;51027;42.162;24.754;2023-11-18T06:11:18;4.78;;;2.45;;
64615;SDS011;51027;42.162;24.754;2023-11-18T06:16:18;6.05;;;2.78;;
64615;SDS011;51027;42.162;24.754;2023-11-18T06:18:50;6.65;;;2.60;;
64615;SDS011;51027;42.162;24.754;2023-11-18T06:21:20;4.22;;;2.08;;
64615;SDS011;51027;42.162;24.754;2023-11-18T06:23:53;4.15;;;2.05;;
64615;SDS011;51027;42.162;24.754;2023-11-18T06:26:20;8.20;;;3.03;;
64615;SDS011;51027;42.162;24.754;2023-11-18T06:28:45;9.27;;;3.13;;
64615;SDS011;51027;42.162;24.754;2023-11-18T06:31:12;7.80;;;2.85;;
64615;SDS011;51027;42.162;24.754;2023-11-18T06:33:39;7.90;;;3.10;;
64615;SDS011;51027;42.162;24.754;2023-11-18T06:36:17;3.83;;;2.10;;
64615;SDS011;51027;42.162;24.754;2023-11-18T06:38:44;4.25;;;2.28;;
64615;SDS011;51027;42.162;24.754;2023-11-18T06:41:11;8.18;;;2.85;;
64615;SDS011;51027;42.162;24.754;2023-11-18T06:43:41;8.50;;;3.00;;
64615;SDS011;51027;42.162;24.754;2023-11-18T06:48:54;6.78;;;2.70;;
64615;SDS011;51027;42.162;24.754;2023-11-18T06:51:23;5.05;;;2.47;;
64615;SDS011;51027;42.162;24.754;2023-11-18T06:53:50;4.80;;;2.38;;
64615;SDS011;51027;42.162;24.754;2023-11-18T06:56:16;7.05;;;2.80;;
64615;SDS011;51027;42.162;24.754;2023-11-18T06:58:42;10.70;;;2.47;;
64615;SDS011;51027;42.162;24.754;2023-11-18T07:01:08;6.55;;;2.53;;
64615;SDS011;51027;42.162;24.754;2023-11-18T07:03:35;9.60;;;3.03;;
64615;SDS011;51027;42.162;24.754;2023-11-18T07:06:04;8.77;;;2.80;;
64615;SDS011;51027;42.162;24.754;2023-11-18T07:08:31;5.28;;;2.42;;
64615;SDS011;51027;42.162;24.754;2023-11-18T07:10:56;5.40;;;2.40;;
64615;SDS011;51027;42.162;24.754;2023-11-18T07:13:22;8.00;;;3.15;;
64615;SDS011;51027;42.162;24.754;2023-11-18T07:15:48;3.42;;;2.08;;
64615;SDS011;51027;42.162;24.754;2023-11-18T07:18:15;6.32;;;2.47;;
64615;SDS011;51027;42.162;24.754;2023-11-18T07:20:41;7.93;;;2.58;;
64615;SDS011;51027;42.162;24.754;2023-11-18T07:23:07;5.72;;;2.35;;
64615;SDS011;51027;42.162;24.754;2023-11-18T07:25:33;5.40;;;2.55;;
64615;SDS011;51027;42.162;24.754;2023-11-18T07:27:59;5.72;;;2.60;;
64615;SDS011;51027;42.162;24.754;2023-11-18T07:30:25;4.63;;;2.33;;
64615;SDS011;51027;42.162;24.754;2023-11-18T07:32:51;5.80;;;2.40;;
64615;SDS011;51027;42.162;24.754;2023-11-18T07:35:16;3.70;;;2.05;;
64615;SDS011;51027;42.162;24.754;2023-11-18T07:37:43;5.55;;;2.25;;
64615;SDS011;51027;42.162;24.754;2023-11-18T07:40:08;4.18;;;1.75;;
64615;SDS011;51027;42.162;24.754;2023-11-18T07:42:37;8.45;;;2.70;;
64615;SDS011;51027;42.162;24.754;2023-11-18T07:45:03;3.38;;;1.77;;
64615;SDS011;51027;42.162;24.754;2023-11-18T07:47:32;9.50;;;2.97;;
64615;SDS011;51027;42.162;24.754;2023-11-18T07:49:59;5.22;;;2.70;;
64615;SDS011;51027;42.162;24.754;2023-11-18T07:52:27;3.25;;;1.40;;
64615;SDS011;51027;42.162;24.754;2023-11-18T07:54:54;5.87;;;2.43;;
64615;SDS011;51027;42.162;24.754;2023-11-18T07:57:19;2.72;;;1.70;;
64615;SDS011;51027;42.162;24.754;2023-11-18T07:59:45;2.92;;;1.45;;
64615;SDS011;51027;42.162;24.754;2023-11-18T08:02:10;2.85;;;1.42;;
64615;SDS011;51027;42.162;24.754;2023-11-18T08:04:36;3.53;;;1.40;;
64615;SDS011;51027;42.162;24.754;2023-11-18T08:07:02;1.40;;;0.85;;
64615;SDS011;51027;42.162;24.754;2023-11-18T08:09:29;4.57;;;1.77;;
64615;SDS011;51027;42.162;24.754;2023-11-18T08:11:56;3.65;;;1.65;;
64615;SDS011;51027;42.162;24.754;2023-11-18T08:14:22;3.08;;;1.60;;
64615;SDS011;51027;42.162;24.754;2023-11-18T08:16:48;3.88;;;1.40;;
64615;SDS011;51027;42.162;24.754;2023-11-18T08:19:15;4.18;;;1.70;;
64615;SDS011;51027;42.162;24.754;2023-11-18T08:21:41;2.67;;;1.65;;
64615;SDS011;51027;42.162;24.754;2023-11-18T08:24:07;3.72;;;1.80;;
64615;SDS011;51027;42.162;24.754;2023-11-18T08:26:33;7.22;;;2.55;;
64615;SDS011;51027;42.162;24.754;2023-11-18T08:29:00;5.22;;;2.03;;
64615;SDS011;51027;42.162;24.754;2023-11-18T08:31:26;3.30;;;1.58;;
64615;SDS011;51027;42.162;24.754;2023-11-18T08:33:51;1.92;;;1.52;;
64615;SDS011;51027;42.162;24.754;2023-11-18T08:36:19;5.47;;;1.58;;
64615;SDS011;51027;42.162;24.754;2023-11-18T08:38:46;1.83;;;1.20;;
64615;SDS011;51027;42.162;24.754;2023-11-18T08:41:12;3.00;;;1.73;;
64615;SDS011;51027;42.162;24.754;2023-11-18T08:43:37;2.80;;;1.60;;
64615;SDS011;51027;42.162;24.754;2023-11-18T08:46:06;4.03;;;1.88;;
64615;SDS011;51027;42.162;24.754;2023-11-18T08:48:32;2.22;;;1.27;;
64615;SDS011;51027;42.162;24.754;2023-11-18T08:50:59;1.92;;;1.30;;
64615;SDS011;51027;42.162;24.754;2023-11-18T08:53:26;4.13;;;1.65;;
64615;SDS011;51027;42.162;24.754;2023-11-18T08:55:52;3.08;;;1.58;;
64615;SDS011;51027;42.162;24.754;2023-11-18T08:58:21;1.80;;;1.10;;
64615;SDS011;51027;42.162;24.754;2023-11-18T09:03:18;3.00;;;1.38;;
64615;SDS011;51027;42.162;24.754;2023-11-18T09:06:00;2.15;;;1.33;;
64615;SDS011;51027;42.162;24.754;2023-11-18T09:08:30;3.75;;;1.65;;
64615;SDS011;51027;42.162;24.754;2023-11-18T09:13:26;1.90;;;1.52;;
64615;SDS011;51027;42.162;24.754;2023-11-18T09:15:56;5.68;;;2.15;;
64615;SDS011;51027;42.162;24.754;2023-11-18T09:18:25;4.10;;;1.67;;
64615;SDS011;51027;42.162;24.754;2023-11-18T09:20:52;2.97;;;1.40;;
64615;SDS011;51027;42.162;24.754;2023-11-18T09:23:22;4.95;;;1.52;;
64615;SDS011;51027;42.162;24.754;2023-11-18T09:25:51;2.25;;;1.42;;
64615;SDS011;51027;42.162;24.754;2023-11-18T09:28:18;3.80;;;1.70;;
64615;SDS011;51027;42.162;24.754;2023-11-18T09:30:49;7.38;;;2.38;;
64615;SDS011;51027;42.162;24.754;2023-11-18T09:33:16;2.33;;;1.23;;
64615;SDS011;51027;42.162;24.754;2023-11-18T09:35:50;5.55;;;1.90;;
64615;SDS011;51027;42.162;24.754;2023-11-18T09:40:55;3.30;;;1.30;;
64615;SDS011;51027;42.162;24.754;2023-11-18T09:43:22;1.30;;;1.20;;
64615;SDS011;51027;42.162;24.754;2023-11-18T09:45:50;1.73;;;1.00;;
64615;SDS011;51027;42.162;24.754;2023-11-18T09:48:20;12.15;;;1.98;;
64615;SDS011;51027;42.162;24.754;2023-11-18T09:50:51;3.22;;;1.38;;
64615;SDS011;51027;42.162;24.754;2023-11-18T09:53:17;2.42;;;1.40;;
64615;SDS011;51027;42.162;24.754;2023-11-18T09:56:05;2.17;;;0.90;;
64615;SDS011;51027;42.162;24.754;2023-11-18T09:58:37;1.25;;;1.15;;
64615;SDS011;51027;42.162;24.754;2023-11-18T10:01:07;1.90;;;1.00;;
64615;SDS011;51027;42.162;24.754;2023-11-18T10:03:38;6.15;;;1.40;;
64615;SDS011;51027;42.162;24.754;2023-11-18T10:06:07;2.47;;;1.15;;
64615;SDS011;51027;42.162;24.754;2023-11-18T10:08:34;2.22;;;1.27;;
64615;SDS011;51027;42.162;24.754;2023-11-18T10:11:03;1.42;;;1.05;;
64615;SDS011;51027;42.162;24.754;2023-11-18T10:13:34;1.67;;;1.15;;
64615;SDS011;51027;42.162;24.754;2023-11-18T10:16:05;6.05;;;1.77;;
64615;SDS011;51027;42.162;24.754;2023-11-18T10:18:32;4.90;;;1.77;;
64615;SDS011;51027;42.162;24.754;2023-11-18T10:21:02;1.70;;;1.50;;
64615;SDS011;51027;42.162;24.754;2023-11-18T10:23:33;5.93;;;2.00;;
64615;SDS011;51027;42.162;24.754;2023-11-18T10:25:59;3.85;;;1.65;;
64615;SDS011;51027;42.162;24.754;2023-11-18T10:31:02;3.70;;;1.90;;
64615;SDS011;51027;42.162;24.754;2023-11-18T10:33:32;5.20;;;1.77;;
64615;SDS011;51027;42.162;24.754;2023-11-18T10:36:02;4.00;;;1.70;;
64615;SDS011;51027;42.162;24.754;2023-11-18T10:38:29;5.10;;;1.77;;
64615;SDS011;51027;42.162;24.754;2023-11-18T10:40:56;2.75;;;1.52;;
64615;SDS011;51027;42.162;24.754;2023-11-18T10:43:23;5.00;;;1.90;;
64615;SDS011;51027;42.162;24.754;2023-11-18T10:46:13;4.13;;;1.65;;
64615;SDS011;51027;42.162;24.754;2023-11-18T10:48:40;2.85;;;1.42;;
64615;SDS011;51027;42.162;24.754;2023-11-18T10:51:13;4.78;;;1.70;;
64615;SDS011;51027;42.162;24.754;2023-11-18T10:53:41;2.22;;;1.85;;
64615;SDS011;51027;42.162;24.754;2023-11-18T10:56:18;2.78;;;1.58;;
64615;SDS011;51027;42.162;24.754;2023-11-18T10:58:49;2.70;;;1.67;;
64615;SDS011;51027;42.162;24.754;2023-11-18T11:01:15;4.88;;;1.85;;
64615;SDS011;51027;42.162;24.754;2023-11-18T11:03:55;7.63;;;2.50;;
64615;SDS011;51027;42.162;24.754;2023-11-18T11:06:21;3.97;;;1.53;;
64615;SDS011;51027;42.162;24.754;2023-11-18T11:08:49;6.18;;;1.80;;
64615;SDS011;51027;42.162;24.754;2023-11-18T11:11:17;4.72;;;1.98;;
64615;SDS011;51027;42.162;24.754;2023-11-18T11:13:46;5.00;;;1.90;;
64615;SDS011;51027;42.162;24.754;2023-11-18T11:16:14;2.78;;;1.35;;
64615;SDS011;51027;42.162;24.754;2023-11-18T11:18:46;2.90;;;1.67;;
64615;SDS011;51027;42.162;24.754;2023-11-18T11:21:18;2.67;;;1.67;;
64615;SDS011;51027;42.162;24.754;2023-11-18T11:23:55;2.63;;;1.75;;
64615;SDS011;51027;42.162;24.754;2023-11-18T11:29:22;5.47;;;2.00;;
64615;SDS011;51027;42.162;24.754;2023-11-18T11:34:37;2.80;;;1.98;;
64615;SDS011;51027;42.162;24.754;2023-11-18T11:37:10;4.85;;;2.10;;
64615;SDS011;51027;42.162;24.754;2023-11-18T11:39:36;5.53;;;2.03;;
64615;SDS011;51027;42.162;24.754;2023-11-18T11:42:03;2.58;;;1.83;;
64615;SDS011;51027;42.162;24.754;2023-11-18T11:44:34;4.30;;;1.90;;
64615;SDS011;51027;42.162;24.754;2023-11-18T11:47:07;3.20;;;1.77;;
64615;SDS011;51027;42.162;24.754;2023-11-18T11:49:39;5.55;;;1.67;;
64615;SDS011;51027;42.162;24.754;2023-11-18T11:52:19;6.28;;;1.85;;
64615;SDS011;51027;42.162;24.754;2023-11-18T11:55:00;8.05;;;2.00;;
64615;SDS011;51027;42.162;24.754;2023-11-18T11:57:31;3.70;;;1.60;;
64615;SDS011;51027;42.162;24.754;2023-11-18T11:59:59;3.90;;;1.63;;
64615;SDS011;51027;42.162;24.754;2023-11-18T12:02:39;2.40;;;1.42;;
64615;SDS011;51027;42.162;24.754;2023-11-18T12:05:15;3.33;;;1.90;;
64615;SDS011;51027;42.162;24.754;2023-11-18T12:07:44;4.80;;;1.80;;
64615;SDS011;51027;42.162;24.754;2023-11-18T12:10:11;2.75;;;1.60;;
64615;SDS011;51027;42.162;24.754;2023-11-18T12:12:45;9.07;;;2.63;;
64615;SDS011;51027;42.162;24.754;2023-11-18T12:15:11;5.50;;;1.75;;
64615;SDS011;51027;42.162;24.754;2023-11-18T12:23:12;1.95;;;1.30;;
64615;SDS011;51027;42.162;24.754;2023-11-18T12:25:42;1.92;;;1.23;;
64615;SDS011;51027;42.162;24.754;2023-11-18T12:28:17;5.43;;;1.80;;
64615;SDS011;51027;42.162;24.754;2023-11-18T12:30:55;3.08;;;1.88;;
64615;SDS011;51027;42.162;24.754;2023-11-18T12:33:21;4.65;;;2.38;;
64615;SDS011;51027;42.162;24.754;2023-11-18T12:42:02;10.32;;;2.45;;
64615;SDS011;51027;42.162;24.754;2023-11-18T12:47:31;3.60;;;1.93;;
64615;SDS011;51027;42.162;24.754;2023-11-18T12:50:06;5.18;;;1.83;;
64615;SDS011;51027;42.162;24.754;2023-11-18T12:52:42;6.20;;;2.03;;
64615;SDS011;51027;42.162;24.754;2023-11-18T12:55:09;7.10;;;1.90;;
64615;SDS011;51027;42.162;24.754;2023-11-18T12:57:47;7.40;;;2.63;;
64615;SDS011;51027;42.162;24.754;2023-11-18T13:00:13;5.45;;;2.22;;
64615;SDS011;51027;42.162;24.754;2023-11-18T13:02:43;7.32;;;2.20;;
64615;SDS011;51027;42.162;24.754;2023-11-18T13:05:09;9.63;;;2.38;;
64615;SDS011;51027;42.162;24.754;2023-11-18T13:07:35;2.67;;;1.50;;
64615;SDS011;51027;42.162;24.754;2023-11-18T13:10:02;5.65;;;1.90;;
64615;SDS011;51027;42.162;24.754;2023-11-18T13:12:29;6.80;;;2.45;;
64615;SDS011;51027;42.162;24.754;2023-11-18T13:14:55;5.53;;;2.22;;
64615;SDS011;51027;42.162;24.754;2023-11-18T13:17:22;9.95;;;2.55;;
64615;SDS011;51027;42.162;24.754;2023-11-18T13:19:47;5.30;;;1.80;;
64615;SDS011;51027;42.162;24.754;2023-11-18T13:22:16;4.35;;;2.00;;
64615;SDS011;51027;42.162;24.754;2023-11-18T13:24:44;3.60;;;1.58;;
64615;SDS011;51027;42.162;24.754;2023-11-18T13:27:12;3.63;;;1.42;;
64615;SDS011;51027;42.162;24.754;2023-11-18T13:29:43;3.53;;;1.45;;
64615;SDS011;51027;42.162;24.754;2023-11-18T13:32:10;3.75;;;1.70;;
64615;SDS011;51027;42.162;24.754;2023-11-18T13:34:36;4.53;;;2.15;;
64615;SDS011;51027;42.162;24.754;2023-11-18T13:37:04;5.00;;;1.98;;
64615;SDS011;51027;42.162;24.754;2023-11-18T13:39:32;4.90;;;2.00;;
64615;SDS011;51027;42.162;24.754;2023-11-18T13:41:58;3.40;;;1.63;;
64615;SDS011;51027;42.162;24.754;2023-11-18T13:44:42;3.65;;;1.80;;
64615;SDS011;51027;42.162;24.754;2023-11-18T13:47:09;5.78;;;2.30;;
64615;SDS011;51027;42.162;24.754;2023-11-18T13:49:39;4.60;;;2.05;;
64615;SDS011;51027;42.162;24.754;2023-11-18T13:52:08;5.82;;;2.55;;
64615;SDS011;51027;42.162;24.754;2023-11-18T13:54:36;3.05;;;1.55;;
64615;SDS011;51027;42.162;24.754;2023-11-18T13:57:05;5.38;;;2.05;;
64615;SDS011;51027;42.162;24.754;2023-11-18T13:59:31;4.80;;;2.08;;
64615;SDS011;51027;42.162;24.754;2023-11-18T14:01:58;4.65;;;2.28;;
64615;SDS011;51027;42.162;24.754;2023-11-18T14:04:30;3.38;;;2.17;;
64615;SDS011;51027;42.162;24.754;2023-11-18T14:07:02;1.50;;;1.27;;
64615;SDS011;51027;42.162;24.754;2023-11-18T14:09:31;7.75;;;2.15;;
64615;SDS011;51027;42.162;24.754;2023-11-18T14:12:07;5.20;;;1.85;;
64615;SDS011;51027;42.162;24.754;2023-11-18T14:14:37;5.00;;;2.13;;
64615;SDS011;51027;42.162;24.754;2023-11-18T14:17:05;3.28;;;1.77;;
64615;SDS011;51027;42.162;24.754;2023-11-18T14:19:38;2.53;;;1.58;;
64615;SDS011;51027;42.162;24.754;2023-11-18T14:22:03;3.97;;;1.75;;
64615;SDS011;51027;42.162;24.754;2023-11-18T14:24:33;5.43;;;2.15;;
64615;SDS011;51027;42.162;24.754;2023-11-18T14:26:59;2.38;;;1.60;;
64615;SDS011;51027;42.162;24.754;2023-11-18T14:29:24;4.82;;;1.98;;
64615;SDS011;51027;42.162;24.754;2023-11-18T14:31:51;4.30;;;1.92;;
64615;SDS011;51027;42.162;24.754;2023-11-18T14:34:16;3.95;;;2.00;;
64615;SDS011;51027;42.162;24.754;2023-11-18T14:36:43;5.82;;;2.20;;
64615;SDS011;51027;42.162;24.754;2023-11-18T14:39:09;5.57;;;2.45;;
64615;SDS011;51027;42.162;24.754;2023-11-18T14:41:38;3.45;;;1.75;;
64615;SDS011;51027;42.162;24.754;2023-11-18T14:44:03;4.13;;;1.73;;
64615;SDS011;51027;42.162;24.754;2023-11-18T14:46:32;4.00;;;2.22;;
64615;SDS011;51027;42.162;24.754;2023-11-18T14:48:58;5.22;;;2.22;;
64615;SDS011;51027;42.162;24.754;2023-11-18T14:51:24;4.72;;;2.05;;
64615;SDS011;51027;42.162;24.754;2023-11-18T14:53:51;7.30;;;2.47;;
64615;SDS011;51027;42.162;24.754;2023-11-18T14:56:17;7.28;;;3.00;;
64615;SDS011;51027;42.162;24.754;2023-11-18T14:58:43;7.68;;;2.97;;
64615;SDS011;51027;42.162;24.754;2023-11-18T15:01:10;5.75;;;2.63;;
64615;SDS011;51027;42.162;24.754;2023-11-18T15:03:35;4.25;;;2.00;;
64615;SDS011;51027;42.162;24.754;2023-11-18T15:06:01;8.55;;;2.60;;
64615;SDS011;51027;42.162;24.754;2023-11-18T15:08:27;9.00;;;3.08;;
64615;SDS011;51027;42.162;24.754;2023-11-18T15:10:52;9.05;;;3.13;;
64615;SDS011;51027;42.162;24.754;2023-11-18T15:13:18;5.28;;;2.33;;
64615;SDS011;51027;42.162;24.754;2023-11-18T15:15:44;9.75;;;3.03;;